Time;durP1;ratioP1;P1;durP2;ratioP2;P2;SDS_P1;SDS_P2;PMS_P1;PMS_P2;Temp;Humidity;BMP_temperature;BMP_pressure;BME280_temperature;BME280_humidity;BME280_pressure;Samples;Min_cycle;Max_cycle;Signal;HPM_P1;HPM_P2
2022/04/28 00:00:26;;;;;;;18.65;7.78;;;;;;;;;;5020422;28;20081;-69
2022/04/28 00:02:53;;;;;;;15.57;7.57;;;;;;;;;;5015555;28;20488;-70
2022/04/28 00:05:19;;;;;;;13.07;7.47;;;;;;;;;;5031901;28;20739;-69
2022/04/28 00:07:46;;;;;;;16.85;7.75;;;;;;;;;;5029447;28;20042;-69
2022/04/28 00:10:13;;;;;;;16.58;8.43;;;;;;;;;;5010962;28;20052;-69
2022/04/28 00:12:39;;;;;;;15.38;8.65;;;;;;;;;;5038511;28;20090;-69
2022/04/28 00:15:05;;;;;;;13.38;7.18;;;;;;;;;;5018932;28;20046;-69
2022/04/28 00:17:31;;;;;;;20.50;8.10;;;;;;;;;;5043974;28;20231;-69
2022/04/28 00:19:57;;;;;;;19.30;7.88;;;;;;;;;;5028550;28;20551;-70
2022/04/28 00:22:24;;;;;;;22.65;8.25;;;;;;;;;;5046734;28;20041;-70
2022/04/28 00:24:50;;;;;;;18.80;7.90;;;;;;;;;;5049488;28;20053;-69
2022/04/28 00:27:16;;;;;;;19.02;7.60;;;;;;;;;;5044476;28;20052;-69
2022/04/28 00:29:42;;;;;;;15.52;8.65;;;;;;;;;;5047677;28;20049;-69
2022/04/28 00:32:08;;;;;;;17.90;7.95;;;;;;;;;;5020644;28;20045;-70
2022/04/28 00:34:34;;;;;;;17.30;8.95;;;;;;;;;;5029010;28;20052;-69
2022/04/28 00:37:00;;;;;;;16.13;7.93;;;;;;;;;;5028181;28;20044;-69
2022/04/28 00:39:26;;;;;;;19.00;8.70;;;;;;;;;;5031383;28;20388;-69
2022/04/28 00:41:52;;;;;;;12.48;7.82;;;;;;;;;;5029159;28;20400;-69
2022/04/28 00:44:18;;;;;;;17.42;8.23;;;;;;;;;;5029266;28;20044;-69
2022/04/28 00:46:44;;;;;;;18.50;8.57;;;;;;;;;;5034382;28;20044;-71
2022/04/28 00:51:55;;;;;;;18.13;8.80;;;;;;;;;;5021264;28;20048;-71
2022/04/28 00:54:22;;;;;;;24.77;9.63;;;;;;;;;;5022125;28;20488;-71
2022/04/28 00:56:48;;;;;;;18.17;9.43;;;;;;;;;;5035093;28;20047;-71
2022/04/28 00:59:14;;;;;;;22.33;9.85;;;;;;;;;;5029860;28;20037;-71
2022/04/28 01:01:40;;;;;;;21.63;9.60;;;;;;;;;;5030752;28;20571;-71
2022/04/28 01:04:06;;;;;;;24.02;8.98;;;;;;;;;;5046072;28;20124;-71
2022/04/28 01:06:32;;;;;;;15.40;8.52;;;;;;;;;;5028877;28;20491;-71
2022/04/28 01:08:59;;;;;;;21.42;8.98;;;;;;;;;;5040075;28;20099;-71
2022/04/28 01:11:26;;;;;;;18.63;8.70;;;;;;;;;;5041576;28;20539;-71
2022/04/28 01:13:53;;;;;;;16.35;8.50;;;;;;;;;;5040466;28;20839;-71
2022/04/28 01:16:19;;;;;;;20.23;9.27;;;;;;;;;;5028068;28;20037;-71
2022/04/28 01:18:45;;;;;;;22.08;9.48;;;;;;;;;;5010586;28;20386;-71
2022/04/28 01:21:11;;;;;;;21.23;9.82;;;;;;;;;;5011731;28;20037;-71
2022/04/28 01:23:37;;;;;;;17.45;8.70;;;;;;;;;;5047608;28;20070;-71
2022/04/28 01:26:04;;;;;;;15.50;8.68;;;;;;;;;;5030404;28;20080;-71
2022/04/28 01:28:31;;;;;;;18.67;9.23;;;;;;;;;;5047494;28;20132;-71
2022/04/28 01:30:57;;;;;;;17.45;8.35;;;;;;;;;;5046868;28;20052;-71
2022/04/28 01:33:23;;;;;;;17.17;8.70;;;;;;;;;;5029781;28;20098;-71
2022/04/28 01:35:49;;;;;;;15.15;8.85;;;;;;;;;;5030463;28;20045;-70
2022/04/28 01:38:15;;;;;;;20.70;9.23;;;;;;;;;;5010809;28;20104;-70
2022/04/28 01:40:41;;;;;;;21.58;8.65;;;;;;;;;;5010170;28;20042;-71
2022/04/28 01:43:07;;;;;;;30.10;9.68;;;;;;;;;;5025578;28;20045;-71
2022/04/28 01:45:33;;;;;;;17.30;9.55;;;;;;;;;;5028456;28;20052;-71
2022/04/28 01:47:59;;;;;;;19.25;9.13;;;;;;;;;;5022921;28;20049;-71
2022/04/28 01:50:25;;;;;;;24.73;9.82;;;;;;;;;;5014972;28;20140;-71
2022/04/28 01:55:35;;;;;;;19.58;9.48;;;;;;;;;;5036387;28;20045;-71
2022/04/28 01:58:01;;;;;;;22.38;9.43;;;;;;;;;;5048287;28;20377;-71
2022/04/28 02:00:29;;;;;;;23.25;10.20;;;;;;;;;;5028782;28;20131;-71
2022/04/28 02:02:55;;;;;;;24.17;11.27;;;;;;;;;;5027513;28;20119;-71
2022/04/28 02:05:21;;;;;;;19.35;8.95;;;;;;;;;;5027028;28;20480;-71
2022/04/28 02:07:47;;;;;;;20.52;9.25;;;;;;;;;;5043031;28;20049;-71
2022/04/28 02:10:13;;;;;;;22.95;10.15;;;;;;;;;;5013414;28;20045;-71
2022/04/28 02:12:39;;;;;;;18.10;8.73;;;;;;;;;;5020790;28;20057;-71
2022/04/28 02:15:05;;;;;;;20.95;9.05;;;;;;;;;;5030054;28;20155;-70
2022/04/28 02:17:37;;;;;;;22.92;10.55;;;;;;;;;;5026698;28;20052;-71
2022/04/28 02:20:07;;;;;;;24.27;9.85;;;;;;;;;;5023376;28;20392;-71
2022/04/28 02:22:33;;;;;;;19.98;9.45;;;;;;;;;;5010310;28;20119;-71
2022/04/28 02:24:59;;;;;;;18.38;8.77;;;;;;;;;;5010170;28;20659;-71
2022/04/28 02:27:25;;;;;;;17.02;9.13;;;;;;;;;;5039086;28;20083;-71
2022/04/28 02:29:51;;;;;;;21.65;9.43;;;;;;;;;;5051448;28;20061;-70
2022/04/28 02:32:17;;;;;;;18.92;8.77;;;;;;;;;;5014996;28;20096;-71
2022/04/28 02:34:43;;;;;;;20.92;10.52;;;;;;;;;;5013359;28;20476;-71
2022/04/28 02:37:09;;;;;;;18.35;10.10;;;;;;;;;;5042232;28;20044;-71
2022/04/28 02:39:35;;;;;;;17.25;9.50;;;;;;;;;;5051329;28;20045;-71
2022/04/28 02:42:01;;;;;;;22.67;10.27;;;;;;;;;;5048359;28;20499;-69
2022/04/28 02:44:27;;;;;;;19.65;9.15;;;;;;;;;;5049739;28;20044;-71
2022/04/28 02:46:53;;;;;;;20.83;9.48;;;;;;;;;;5030575;28;20489;-71
2022/04/28 02:49:19;;;;;;;17.75;8.90;;;;;;;;;;5012877;28;20071;-71
2022/04/28 02:51:45;;;;;;;15.35;9.13;;;;;;;;;;5044522;28;20045;-71
2022/04/28 02:54:12;;;;;;;25.20;11.23;;;;;;;;;;5030606;28;20084;-71
2022/04/28 02:56:38;;;;;;;14.50;8.98;;;;;;;;;;5043250;28;20047;-71
2022/04/28 02:59:05;;;;;;;19.80;10.52;;;;;;;;;;5031654;28;20136;-70
2022/04/28 03:01:31;;;;;;;27.00;11.07;;;;;;;;;;5029647;28;20115;-71
2022/04/28 03:03:57;;;;;;;35.53;12.40;;;;;;;;;;5049880;28;20049;-70
2022/04/28 03:11:53;;;;;;;19.92;10.57;;;;;;;;;;5023034;28;20053;-70
2022/04/28 03:14:19;;;;;;;17.67;9.40;;;;;;;;;;5050944;28;20161;-70
2022/04/28 03:16:46;;;;;;;23.67;10.00;;;;;;;;;;5023004;28;20135;-69
2022/04/28 03:19:12;;;;;;;18.80;9.88;;;;;;;;;;5020116;28;20049;-71
2022/04/28 03:21:38;;;;;;;26.58;11.40;;;;;;;;;;5021946;28;20237;-71
2022/04/28 03:24:04;;;;;;;32.45;11.77;;;;;;;;;;5050669;28;20128;-71
2022/04/28 03:26:30;;;;;;;22.15;10.48;;;;;;;;;;5032197;28;20132;-71
2022/04/28 03:28:56;;;;;;;31.42;11.90;;;;;;;;;;5039375;28;20165;-71
2022/04/28 03:31:22;;;;;;;26.70;11.43;;;;;;;;;;5028567;28;20468;-70
2022/04/28 03:33:48;;;;;;;24.70;10.05;;;;;;;;;;5028658;28;20037;-71
2022/04/28 03:38:59;;;;;;;31.75;11.95;;;;;;;;;;5040787;28;20132;-71
2022/04/28 03:41:25;;;;;;;42.78;13.75;;;;;;;;;;5029688;28;20484;-71
2022/04/28 03:43:51;;;;;;;25.88;10.82;;;;;;;;;;5028422;28;20061;-71
2022/04/28 03:46:18;;;;;;;28.02;11.15;;;;;;;;;;5012293;28;20036;-71
2022/04/28 03:48:44;;;;;;;40.95;13.77;;;;;;;;;;5013976;28;20393;-71
2022/04/28 03:51:11;;;;;;;42.47;15.07;;;;;;;;;;5037007;28;20044;-71
2022/04/28 03:53:37;;;;;;;109.30;25.52;;;;;;;;;;5032837;28;20073;-71
2022/04/28 03:56:03;;;;;;;28.08;12.10;;;;;;;;;;4997620;28;20041;-71
2022/04/28 03:58:29;;;;;;;29.55;12.02;;;;;;;;;;5031258;28;20051;-71
2022/04/28 04:00:55;;;;;;;34.90;12.85;;;;;;;;;;5013100;28;20037;-71
2022/04/28 04:03:21;;;;;;;44.40;14.80;;;;;;;;;;5033904;28;20049;-71
2022/04/28 04:05:47;;;;;;;31.05;11.65;;;;;;;;;;5030866;28;20049;-71
2022/04/28 04:08:14;;;;;;;39.63;12.68;;;;;;;;;;5007067;28;20052;-71
2022/04/28 04:10:40;;;;;;;23.60;11.02;;;;;;;;;;5029333;28;20492;-71
2022/04/28 04:13:06;;;;;;;27.17;12.20;;;;;;;;;;5028811;28;20147;-71
2022/04/28 04:15:32;;;;;;;23.17;10.10;;;;;;;;;;5048464;28;20049;-71
2022/04/28 04:17:59;;;;;;;20.33;10.95;;;;;;;;;;5047555;28;20048;-71
2022/04/28 04:20:25;;;;;;;40.50;15.20;;;;;;;;;;4997970;28;20435;-71
2022/04/28 04:22:52;;;;;;;41.78;14.70;;;;;;;;;;5016925;28;20098;-71
2022/04/28 04:25:18;;;;;;;38.90;12.95;;;;;;;;;;5049175;28;20439;-71
2022/04/28 04:27:44;;;;;;;26.45;11.90;;;;;;;;;;5025320;28;20044;-71
2022/04/28 04:32:55;;;;;;;52.70;17.15;;;;;;;;;;5030051;28;20053;-71
2022/04/28 04:35:23;;;;;;;29.35;13.18;;;;;;;;;;5045131;28;20124;-71
2022/04/28 04:37:50;;;;;;;45.97;14.23;;;;;;;;;;5026149;28;20068;-71
2022/04/28 04:40:16;;;;;;;84.80;25.25;;;;;;;;;;5012607;28;20087;-71
2022/04/28 04:42:42;;;;;;;88.15;21.77;;;;;;;;;;5025691;28;20045;-71
2022/04/28 04:45:08;;;;;;;26.58;12.07;;;;;;;;;;5049004;28;20071;-71
2022/04/28 04:47:34;;;;;;;100.50;24.83;;;;;;;;;;5045962;28;20120;-71
2022/04/28 04:50:00;;;;;;;130.02;33.97;;;;;;;;;;5032310;28;20132;-71
2022/04/28 04:52:26;;;;;;;34.30;14.32;;;;;;;;;;5028337;28;20403;-71
2022/04/28 04:54:52;;;;;;;51.88;16.45;;;;;;;;;;5028215;28;20043;-71
2022/04/28 04:57:18;;;;;;;126.53;29.73;;;;;;;;;;5027423;28;20397;-71
2022/04/28 04:59:44;;;;;;;24.55;12.80;;;;;;;;;;5026752;28;20159;-71
2022/04/28 05:02:10;;;;;;;27.17;13.45;;;;;;;;;;5028222;28;20124;-71
2022/04/28 05:04:36;;;;;;;45.97;15.57;;;;;;;;;;5037377;28;20041;-71
2022/04/28 05:07:02;;;;;;;25.95;13.23;;;;;;;;;;5031642;28;20049;-71
2022/04/28 05:09:28;;;;;;;30.73;12.02;;;;;;;;;;5016047;28;20512;-71
2022/04/28 05:11:53;;;;;;;26.17;12.13;;;;;;;;;;4993501;28;20052;-71
2022/04/28 05:14:19;;;;;;;22.77;11.05;;;;;;;;;;5029377;28;20260;-71
2022/04/28 05:16:45;;;;;;;49.25;15.43;;;;;;;;;;5043353;28;20484;-71
2022/04/28 05:19:11;;;;;;;17.38;9.77;;;;;;;;;;5040770;28;20037;-71
2022/04/28 05:21:37;;;;;;;28.50;12.35;;;;;;;;;;5021539;28;20426;-71
2022/04/28 05:24:04;;;;;;;27.58;12.45;;;;;;;;;;5042029;28;20595;-71
2022/04/28 05:26:30;;;;;;;58.08;17.85;;;;;;;;;;5022772;28;20098;-71
2022/04/28 05:28:55;;;;;;;30.67;13.40;;;;;;;;;;5036742;28;20053;-72
2022/04/28 05:31:21;;;;;;;26.27;12.07;;;;;;;;;;5042627;28;20201;-71
2022/04/28 05:33:50;;;;;;;33.88;14.32;;;;;;;;;;5030256;28;20080;-72
2022/04/28 05:36:17;;;;;;;28.30;12.88;;;;;;;;;;5025614;28;20503;-71
2022/04/28 05:38:43;;;;;;;26.77;11.85;;;;;;;;;;5025233;28;20045;-71
2022/04/28 05:41:09;;;;;;;45.67;15.32;;;;;;;;;;5032073;28;20092;-71
2022/04/28 05:46:20;;;;;;;34.13;14.32;;;;;;;;;;5025557;28;20049;-71
2022/04/28 05:48:46;;;;;;;44.58;15.98;;;;;;;;;;5026811;28;20135;-71
2022/04/28 05:51:13;;;;;;;22.95;10.40;;;;;;;;;;4998063;28;20064;-71
2022/04/28 05:53:39;;;;;;;35.28;12.90;;;;;;;;;;5028203;28;20128;-71
2022/04/28 05:56:06;;;;;;;16.85;9.60;;;;;;;;;;5003275;28;20098;-71
2022/04/28 05:58:32;;;;;;;40.63;15.80;;;;;;;;;;5029973;28;20041;-71
2022/04/28 06:00:59;;;;;;;33.85;14.23;;;;;;;;;;5026834;28;20055;-71
2022/04/28 06:03:25;;;;;;;24.25;10.43;;;;;;;;;;5015816;28;20049;-71
2022/04/28 06:05:51;;;;;;;29.65;12.27;;;;;;;;;;5052388;28;20044;-71
2022/04/28 06:08:17;;;;;;;15.32;8.82;;;;;;;;;;5015803;28;20033;-71
2022/04/28 06:10:43;;;;;;;28.65;11.23;;;;;;;;;;5031529;28;20037;-71
2022/04/28 06:13:09;;;;;;;19.00;8.77;;;;;;;;;;5032132;28;20042;-71
2022/04/28 06:15:35;;;;;;;36.30;13.30;;;;;;;;;;5031260;28;20048;-71
2022/04/28 06:18:01;;;;;;;35.10;11.77;;;;;;;;;;5046849;28;20194;-71
2022/04/28 06:20:27;;;;;;;75.35;20.23;;;;;;;;;;5033694;28;20049;-71
2022/04/28 06:22:53;;;;;;;29.30;11.88;;;;;;;;;;5031656;28;20044;-71
2022/04/28 06:25:19;;;;;;;24.42;11.15;;;;;;;;;;5038998;28;20203;-71
2022/04/28 06:27:45;;;;;;;32.50;14.02;;;;;;;;;;5033562;28;20056;-71
2022/04/28 06:30:11;;;;;;;255.23;101.60;;;;;;;;;;5013279;28;20065;-71
2022/04/28 06:32:37;;;;;;;88.85;41.30;;;;;;;;;;5029392;28;20386;-71
2022/04/28 06:35:04;;;;;;;77.43;29.77;;;;;;;;;;5012316;28;20049;-71
2022/04/28 06:37:30;;;;;;;71.60;21.88;;;;;;;;;;5008286;28;20091;-69
2022/04/28 06:39:56;;;;;;;23.65;9.43;;;;;;;;;;5030752;28;20117;-69
2022/04/28 06:42:22;;;;;;;19.67;8.30;;;;;;;;;;5029404;28;20128;-69
2022/04/28 06:44:48;;;;;;;13.60;7.07;;;;;;;;;;5034445;28;20068;-69
2022/04/28 06:47:14;;;;;;;29.95;11.05;;;;;;;;;;5050909;28;20484;-70
2022/04/28 06:49:40;;;;;;;35.67;10.05;;;;;;;;;;5013930;28;20139;-69
2022/04/28 06:52:07;;;;;;;21.23;7.65;;;;;;;;;;5012790;28;20186;-69
2022/04/28 06:54:33;;;;;;;32.45;10.20;;;;;;;;;;5030098;28;20037;-70
2022/04/28 06:56:59;;;;;;;33.15;10.27;;;;;;;;;;5028959;28;20504;-69
2022/04/28 06:59:25;;;;;;;28.55;7.95;;;;;;;;;;5028872;28;20055;-69
2022/04/28 07:01:51;;;;;;;12.68;5.32;;;;;;;;;;5013296;28;20401;-69
2022/04/28 07:04:17;;;;;;;13.48;6.03;;;;;;;;;;5030783;28;20492;-69
2022/04/28 07:06:43;;;;;;;14.90;5.75;;;;;;;;;;5031103;28;20069;-70
2022/04/28 07:09:09;;;;;;;14.02;5.20;;;;;;;;;;5012502;28;20048;-69
2022/04/28 07:11:35;;;;;;;18.60;5.43;;;;;;;;;;5029198;28;20041;-68
2022/04/28 07:14:01;;;;;;;8.05;4.30;;;;;;;;;;5011752;28;20068;-69
2022/04/28 07:16:27;;;;;;;174.18;94.10;;;;;;;;;;5020010;28;20041;-69
2022/04/28 07:18:53;;;;;;;43.75;22.45;;;;;;;;;;5049243;28;20479;-69
2022/04/28 07:21:19;;;;;;;23.85;9.73;;;;;;;;;;5031451;28;20416;-69
2022/04/28 07:23:45;;;;;;;18.33;8.15;;;;;;;;;;5022294;28;20154;-69
2022/04/28 07:26:11;;;;;;;12.45;5.60;;;;;;;;;;5035095;28;20045;-70
2022/04/28 07:28:37;;;;;;;19.27;6.55;;;;;;;;;;5029810;28;20489;-69
2022/04/28 07:31:06;;;;;;;21.55;6.57;;;;;;;;;;5012731;28;20107;-69
2022/04/28 07:33:33;;;;;;;9.43;4.90;;;;;;;;;;5029950;28;20080;-69
2022/04/28 07:35:59;;;;;;;9.07;4.68;;;;;;;;;;5018979;28;20041;-69
2022/04/28 07:38:25;;;;;;;28.85;7.28;;;;;;;;;;5025217;28;20056;-69
2022/04/28 07:40:53;;;;;;;21.08;6.55;;;;;;;;;;5012046;28;20041;-70
2022/04/28 07:43:20;;;;;;;14.18;6.18;;;;;;;;;;5030807;28;20099;-70
2022/04/28 07:45:46;;;;;;;16.52;5.82;;;;;;;;;;5030441;28;20079;-71
2022/04/28 07:48:12;;;;;;;13.95;5.88;;;;;;;;;;5011251;28;20050;-71
2022/04/28 07:50:38;;;;;;;13.38;5.53;;;;;;;;;;5030144;28;20428;-71
2022/04/28 07:53:04;;;;;;;15.95;5.72;;;;;;;;;;5029787;28;20193;-71
2022/04/28 07:55:30;;;;;;;13.40;5.60;;;;;;;;;;5045050;28;20045;-71
2022/04/28 07:57:56;;;;;;;12.63;5.70;;;;;;;;;;5033964;28;20050;-71
2022/04/28 08:00:22;;;;;;;15.15;4.60;;;;;;;;;;5029583;28;20052;-70
2022/04/28 08:02:48;;;;;;;10.93;4.80;;;;;;;;;;5039000;28;20124;-71
2022/04/28 08:05:15;;;;;;;10.90;5.30;;;;;;;;;;5031656;28;20060;-73
2022/04/28 08:07:41;;;;;;;11.90;4.70;;;;;;;;;;5015568;28;20095;-71
2022/04/28 08:10:07;;;;;;;15.60;5.70;;;;;;;;;;5034306;28;20395;-71
2022/04/28 08:12:34;;;;;;;22.73;7.97;;;;;;;;;;5041139;28;20037;-72
2022/04/28 08:15:00;;;;;;;12.55;6.13;;;;;;;;;;5011943;28;20799;-71
2022/04/28 08:17:26;;;;;;;15.63;5.70;;;;;;;;;;5020487;28;20080;-71
2022/04/28 08:19:52;;;;;;;25.33;6.75;;;;;;;;;;5030054;28;20045;-70
2022/04/28 08:22:18;;;;;;;15.57;6.88;;;;;;;;;;5038382;28;20517;-70
2022/04/28 08:24:44;;;;;;;10.32;5.15;;;;;;;;;;5023905;28;20044;-71
2022/04/28 08:27:10;;;;;;;11.25;5.43;;;;;;;;;;5044024;28;20292;-72
2022/04/28 08:29:36;;;;;;;11.95;6.10;;;;;;;;;;5011533;28;20054;-71
2022/04/28 08:32:03;;;;;;;23.17;8.15;;;;;;;;;;5023460;28;20560;-71
2022/04/28 08:34:29;;;;;;;313.27;123.15;;;;;;;;;;5020925;28;20049;-70
2022/04/28 08:36:55;;;;;;;38.00;16.02;;;;;;;;;;5027682;28;20048;-70
2022/04/28 08:39:21;;;;;;;25.63;11.65;;;;;;;;;;5049838;28;20045;-71
2022/04/28 08:41:47;;;;;;;36.15;11.18;;;;;;;;;;5029008;28;20041;-70
2022/04/28 08:44:17;;;;;;;22.50;6.22;;;;;;;;;;5031303;28;20052;-71
2022/04/28 08:46:50;;;;;;;13.40;5.40;;;;;;;;;;5030017;28;20124;-70
2022/04/28 08:49:17;;;;;;;9.05;4.75;;;;;;;;;;5025373;28;20053;-71
2022/04/28 08:51:44;;;;;;;13.40;5.22;;;;;;;;;;5030760;28;20072;-70
2022/04/28 08:54:11;;;;;;;11.55;5.22;;;;;;;;;;5049578;28;20044;-70
2022/04/28 08:56:38;;;;;;;16.60;6.07;;;;;;;;;;5028921;28;20048;-70
2022/04/28 08:59:04;;;;;;;15.25;5.25;;;;;;;;;;5029059;28;20046;-70
2022/04/28 09:01:30;;;;;;;19.08;5.20;;;;;;;;;;5021764;28;20391;-71
2022/04/28 09:03:56;;;;;;;13.70;4.32;;;;;;;;;;5028771;28;20045;-70
2022/04/28 09:06:23;;;;;;;13.32;4.57;;;;;;;;;;5027264;28;20045;-69
2022/04/28 09:08:50;;;;;;;18.45;5.45;;;;;;;;;;5032792;28;20045;-69
2022/04/28 09:11:27;;;;;;;19.42;5.15;;;;;;;;;;5010409;28;20042;-69
2022/04/28 09:14:12;;;;;;;13.60;3.63;;;;;;;;;;5010976;28;20067;-69
2022/04/28 09:16:51;;;;;;;31.02;5.50;;;;;;;;;;4994511;28;20092;-69
2022/04/28 09:19:22;;;;;;;15.73;4.72;;;;;;;;;;5027887;28;20052;-71
2022/04/28 09:21:50;;;;;;;14.18;4.03;;;;;;;;;;5021908;28;20068;-70
2022/04/28 09:24:16;;;;;;;7.53;3.00;;;;;;;;;;5047654;28;20043;-69
2022/04/28 09:26:42;;;;;;;18.92;4.82;;;;;;;;;;5048757;28;20036;-70
2022/04/28 09:29:15;;;;;;;28.33;5.80;;;;;;;;;;5018166;28;20062;-70
2022/04/28 09:31:43;;;;;;;292.27;156.75;;;;;;;;;;5037535;28;20092;-70
2022/04/28 09:34:13;;;;;;;35.85;16.25;;;;;;;;;;5027828;28;20121;-70
2022/04/28 09:36:40;;;;;;;24.20;13.68;;;;;;;;;;5042076;28;20052;-70
2022/04/28 09:39:07;;;;;;;18.95;4.93;;;;;;;;;;5030971;28;20071;-70
2022/04/28 09:44:20;;;;;;;9.80;3.10;;;;;;;;;;5026868;28;20057;-70
2022/04/28 09:46:46;;;;;;;10.68;3.22;;;;;;;;;;5049251;28;20618;-71
2022/04/28 09:49:13;;;;;;;9.77;4.00;;;;;;;;;;5045216;28;20041;-70
2022/04/28 09:51:39;;;;;;;11.32;3.63;;;;;;;;;;5032603;28;20041;-69
2022/04/28 09:54:07;;;;;;;5.25;2.80;;;;;;;;;;5034501;28;20051;-70
2022/04/28 09:56:34;;;;;;;11.57;3.63;;;;;;;;;;5051837;28;20406;-69
2022/04/28 09:59:01;;;;;;;8.55;3.30;;;;;;;;;;5006216;28;20054;-70
2022/04/28 10:01:29;;;;;;;14.45;4.47;;;;;;;;;;5017552;28;20084;-70
2022/04/28 10:03:55;;;;;;;10.15;3.20;;;;;;;;;;5032351;28;20416;-70
2022/04/28 10:06:24;;;;;;;10.32;3.35;;;;;;;;;;5027577;28;20045;-69
2022/04/28 10:08:51;;;;;;;8.57;3.17;;;;;;;;;;5031242;28;20053;-69
2022/04/28 10:11:20;;;;;;;7.85;3.25;;;;;;;;;;5015506;28;20076;-71
2022/04/28 10:13:47;;;;;;;7.93;3.30;;;;;;;;;;5045681;28;20124;-69
2022/04/28 10:16:14;;;;;;;7.95;3.25;;;;;;;;;;5050552;28;20080;-69
2022/04/28 10:18:41;;;;;;;14.93;4.03;;;;;;;;;;5031850;28;20081;-70
2022/04/28 10:21:10;;;;;;;10.35;3.25;;;;;;;;;;5015124;28;20045;-71
2022/04/28 10:34:59;;;;;;;7.78;3.45;;;;;;;;;;5048331;28;20041;-70
2022/04/28 10:37:33;;;;;;;9.63;3.20;;;;;;;;;;5029711;28;20041;-70
2022/04/28 10:39:59;;;;;;;10.15;3.55;;;;;;;;;;5029189;28;20041;-71
2022/04/28 10:42:28;;;;;;;8.88;3.15;;;;;;;;;;5034932;28;20116;-71
2022/04/28 10:44:54;;;;;;;;;;;;;;;;;;5014227;28;20049;-71
2022/04/28 10:47:37;;;;;;;8.65;3.20;;;;;;;;;;5033535;28;20220;-70
2022/04/28 10:50:23;;;;;;;9.10;3.17;;;;;;;;;;5028716;28;20041;-71
2022/04/28 10:53:02;;;;;;;10.95;3.45;;;;;;;;;;5032134;28;20124;-71
2022/04/28 10:55:40;;;;;;;9.05;3.80;;;;;;;;;;5029921;28;20072;-71
2022/04/28 10:58:25;;;;;;;10.02;3.47;;;;;;;;;;5030070;28;20418;-70
2022/04/28 11:00:52;;;;;;;7.05;3.35;;;;;;;;;;5039731;28;20140;-70
2022/04/28 11:03:39;;;;;;;10.60;3.08;;;;;;;;;;5032031;28;20041;-71
2022/04/28 11:06:09;;;;;;;6.70;3.20;;;;;;;;;;5046909;28;20487;-71
2022/04/28 11:08:35;;;;;;;18.33;4.57;;;;;;;;;;5012377;28;20045;-71
2022/04/28 11:11:05;;;;;;;10.18;3.67;;;;;;;;;;5017045;28;20393;-70
2022/04/28 11:13:32;;;;;;;7.72;3.38;;;;;;;;;;5014217;28;20099;-71
2022/04/28 11:16:01;;;;;;;86.20;50.22;;;;;;;;;;5028611;28;20083;-70
2022/04/28 11:18:27;;;;;;;;;;;;;;;;;;5025762;28;20056;-71
2022/04/28 11:20:57;;;;;;;31.65;13.20;;;;;;;;;;5034839;28;20430;-70
2022/04/28 11:23:23;;;;;;;15.00;4.80;;;;;;;;;;5050411;28;20083;-69
2022/04/28 11:25:50;;;;;;;8.30;3.65;;;;;;;;;;5029929;28;20091;-71
2022/04/28 11:28:16;;;;;;;11.38;3.90;;;;;;;;;;5047821;28;20064;-70
2022/04/28 11:30:42;;;;;;;16.70;4.43;;;;;;;;;;5031865;28;20053;-71
2022/04/28 11:33:12;;;;;;;21.25;9.75;;;;;;;;;;5027738;28;20044;-71
2022/04/28 11:35:40;;;;;;;18.60;6.43;;;;;;;;;;5022165;28;20084;-71
2022/04/28 11:38:06;;;;;;;16.23;7.25;;;;;;;;;;5020499;28;20052;-70
2022/04/28 11:40:35;;;;;;;12.07;3.65;;;;;;;;;;5021701;28;20544;-68
2022/04/28 11:43:02;;;;;;;7.88;3.85;;;;;;;;;;5024694;28;20405;-71
2022/04/28 11:45:31;;;;;;;13.07;4.55;;;;;;;;;;5039877;28;20412;-72
2022/04/28 11:47:59;;;;;;;11.18;4.13;;;;;;;;;;5041136;28;20045;-70
2022/04/28 11:50:27;;;;;;;8.35;3.60;;;;;;;;;;5038827;28;20084;-71
2022/04/28 11:53:04;;;;;;;12.05;3.97;;;;;;;;;;5020955;28;20439;-70
2022/04/28 11:55:31;;;;;;;19.25;4.63;;;;;;;;;;5037482;28;20053;-70
2022/04/28 11:57:57;;;;;;;12.32;4.28;;;;;;;;;;5011259;28;20050;-70
2022/04/28 12:00:26;;;;;;;16.02;4.30;;;;;;;;;;5011277;28;20041;-70
2022/04/28 12:02:55;;;;;;;16.23;4.75;;;;;;;;;;5032930;28;20092;-71
2022/04/28 12:05:22;;;;;;;12.68;4.00;;;;;;;;;;5021811;28;20049;-70
2022/04/28 12:07:52;;;;;;;9.93;3.88;;;;;;;;;;5038507;28;20045;-71
2022/04/28 12:15:53;;;;;;;10.82;4.60;;;;;;;;;;5017213;28;20396;-71
2022/04/28 12:21:15;;;;;;;9.25;4.20;;;;;;;;;;5012435;28;20060;-69
2022/04/28 12:23:41;;;;;;;11.07;4.35;;;;;;;;;;5044952;28;20041;-71
2022/04/28 12:26:08;;;;;;;12.07;4.40;;;;;;;;;;5023151;28;20473;-81
2022/04/28 12:28:38;;;;;;;16.25;5.10;;;;;;;;;;5014135;28;20065;-73
2022/04/28 12:31:05;;;;;;;14.35;4.65;;;;;;;;;;5028882;28;20084;-76
2022/04/28 12:33:35;;;;;;;11.98;4.63;;;;;;;;;;5026530;28;20041;-73
2022/04/28 12:36:05;;;;;;;13.68;4.80;;;;;;;;;;5035294;28;20076;-75
2022/04/28 12:38:33;;;;;;;10.18;4.60;;;;;;;;;;5023055;28;20056;-75
2022/04/28 12:41:11;;;;;;;14.02;4.82;;;;;;;;;;5026417;28;20175;-75
2022/04/28 12:43:37;;;;;;;;;;;;;;;;;;5023894;28;20049;-74
2022/04/28 12:46:05;;;;;;;11.20;4.65;;;;;;;;;;5010917;28;20178;-73
2022/04/28 12:48:32;;;;;;;13.68;4.88;;;;;;;;;;5038900;28;20041;-72
2022/04/28 12:51:13;;;;;;;9.30;4.65;;;;;;;;;;5030089;28;20102;-73
2022/04/28 12:53:40;;;;;;;12.65;5.10;;;;;;;;;;5035015;28;20556;-72
2022/04/28 12:56:07;;;;;;;8.50;4.40;;;;;;;;;;5021511;28;20052;-74
2022/04/28 12:58:54;;;;;;;9.00;3.90;;;;;;;;;;5038605;28;20514;-74
2022/04/28 13:01:20;;;;;;;14.27;4.10;;;;;;;;;;5006570;28;20049;-73
2022/04/28 13:04:06;;;;;;;11.40;4.40;;;;;;;;;;5024861;28;20045;-76
2022/04/28 13:06:34;;;;;;;14.43;5.00;;;;;;;;;;5015156;28;20053;-75
2022/04/28 13:09:01;;;;;;;17.60;5.47;;;;;;;;;;5033023;28;20048;-73
2022/04/28 13:11:28;;;;;;;13.35;5.22;;;;;;;;;;5047651;28;20415;-75
2022/04/28 13:13:55;;;;;;;20.80;6.43;;;;;;;;;;5048649;28;20052;-74
2022/04/28 13:16:21;;;;;;;13.30;4.03;;;;;;;;;;5017152;28;20087;-72
2022/04/28 13:18:48;;;;;;;11.57;3.97;;;;;;;;;;5027708;28;20129;-72
2022/04/28 13:21:15;;;;;;;10.82;3.75;;;;;;;;;;5023416;28;20041;-73
2022/04/28 13:23:41;;;;;;;9.25;4.75;;;;;;;;;;5030520;28;20084;-77
2022/04/28 13:26:08;;;;;;;15.05;4.10;;;;;;;;;;5047169;28;20052;-71
2022/04/28 13:28:34;;;;;;;9.30;4.00;;;;;;;;;;5038081;28;20604;-73
2022/04/28 13:31:00;;;;;;;13.35;3.90;;;;;;;;;;5028102;28;20061;-71
2022/04/28 13:33:26;;;;;;;24.00;11.63;;;;;;;;;;5031446;28;20514;-71
2022/04/28 13:35:53;;;;;;;48.67;24.23;;;;;;;;;;5044296;28;20053;-72
2022/04/28 13:38:19;;;;;;;15.32;4.68;;;;;;;;;;5005826;28;20654;-70
2022/04/28 13:40:44;;;;;;;12.77;3.90;;;;;;;;;;5011152;28;20103;-71
2022/04/28 13:43:11;;;;;;;13.00;4.35;;;;;;;;;;5025793;28;20138;-72
2022/04/28 13:45:37;;;;;;;9.93;4.18;;;;;;;;;;5022096;28;20092;-72
2022/04/28 13:48:03;;;;;;;9.50;3.20;;;;;;;;;;5032334;28;20080;-71
2022/04/28 13:50:29;;;;;;;9.30;3.38;;;;;;;;;;5041355;28;20049;-71
2022/04/28 13:52:55;;;;;;;8.05;3.58;;;;;;;;;;5027711;28;20044;-71
2022/04/28 13:55:21;;;;;;;18.73;5.20;;;;;;;;;;5025198;28;20058;-69
2022/04/28 13:57:47;;;;;;;10.07;3.80;;;;;;;;;;5011169;28;20041;-71
2022/04/28 14:00:14;;;;;;;15.90;4.43;;;;;;;;;;5039028;28;20047;-69
2022/04/28 14:02:40;;;;;;;16.42;5.10;;;;;;;;;;5048043;28;20146;-72
2022/04/28 14:05:06;;;;;;;9.95;3.88;;;;;;;;;;5048390;28;20095;-71
2022/04/28 14:07:36;;;;;;;10.27;4.10;;;;;;;;;;5021233;28;20133;-71
2022/04/28 14:10:02;;;;;;;11.15;4.03;;;;;;;;;;5027460;28;20055;-72
2022/04/28 14:12:28;;;;;;;13.88;5.25;;;;;;;;;;5046651;28;20369;-75
2022/04/28 14:14:54;;;;;;;33.83;6.10;;;;;;;;;;5026170;28;20074;-72
2022/04/28 14:17:20;;;;;;;17.50;5.65;;;;;;;;;;5016063;28;20092;-74
2022/04/28 14:19:46;;;;;;;8.88;4.07;;;;;;;;;;5001894;28;20049;-74
2022/04/28 14:22:17;;;;;;;17.52;6.40;;;;;;;;;;5033821;28;20080;-74
2022/04/28 14:24:43;;;;;;;31.20;8.85;;;;;;;;;;5035440;28;20306;-74
2022/04/28 14:27:09;;;;;;;19.58;5.22;;;;;;;;;;5038346;28;20166;-75
2022/04/28 14:29:35;;;;;;;35.67;9.35;;;;;;;;;;5024652;28;20144;-72
2022/04/28 14:32:01;;;;;;;10.15;3.50;;;;;;;;;;5040696;28;20068;-74
2022/04/28 14:34:28;;;;;;;10.63;4.00;;;;;;;;;;5021388;28;20041;-73
2022/04/28 14:36:54;;;;;;;16.85;5.55;;;;;;;;;;5039909;28;20045;-72
2022/04/28 14:39:21;;;;;;;12.18;4.32;;;;;;;;;;5017714;28;20470;-75
2022/04/28 14:41:47;;;;;;;38.00;19.15;;;;;;;;;;5004685;28;20118;-74
2022/04/28 14:44:15;;;;;;;11.00;4.15;;;;;;;;;;5008674;28;20072;-73
2022/04/28 14:46:41;;;;;;;11.10;4.10;;;;;;;;;;5024534;28;20053;-74
2022/04/28 14:54:36;;;;;;;11.60;3.50;;;;;;;;;;5041156;28;20078;-73
2022/04/28 14:57:02;;;;;;;11.80;3.38;;;;;;;;;;5045038;28;20124;-73
2022/04/28 14:59:28;;;;;;;13.85;3.97;;;;;;;;;;5039930;28;20045;-74
2022/04/28 15:01:54;;;;;;;7.97;3.10;;;;;;;;;;5014181;28;20068;-70
2022/04/28 15:04:22;;;;;;;14.50;3.75;;;;;;;;;;5030136;28;20056;-71
2022/04/28 15:06:48;;;;;;;14.45;2.95;;;;;;;;;;5025800;28;20037;-71
2022/04/28 15:09:14;;;;;;;11.82;3.60;;;;;;;;;;5025772;28;20064;-71
2022/04/28 15:11:40;;;;;;;10.23;3.50;;;;;;;;;;5035291;28;20088;-72
2022/04/28 15:14:07;;;;;;;12.00;3.40;;;;;;;;;;5021816;28;20045;-72